Time;durP1;ratioP1;P1;durP2;ratioP2;P2;SDS_P1;SDS_P2;PMS_P1;PMS_P2;Temp;Humidity;BMP_temperature;BMP_pressure;BME280_temperature;BME280_humidity;BME280_pressure;Samples;Min_cycle;Max_cycle;Signal;HPM_P1;HPM_P2
2022/07/11 00:00:09;;;;;;;3.58;1.30;;;20.20;56.60;;;;;;4980502;28;20058;-52
2022/07/11 00:02:36;;;;;;;2.78;1.52;;;20.20;56.60;;;;;;4983613;28;20513;-51
2022/07/11 00:05:07;;;;;;;2.75;1.58;;;20.20;56.60;;;;;;4982366;28;20406;-50
2022/07/11 00:07:34;;;;;;;4.47;1.88;;;20.20;56.50;;;;;;4980992;28;20494;-50
2022/07/11 00:10:02;;;;;;;5.00;1.98;;;20.20;56.50;;;;;;4984424;28;20501;-49
2022/07/11 00:12:29;;;;;;;4.53;1.52;;;20.20;56.40;;;;;;4984044;28;20054;-53
2022/07/11 00:14:57;;;;;;;6.80;2.22;;;20.20;56.40;;;;;;4981849;28;20058;-53
2022/07/11 00:17:25;;;;;;;3.00;2.17;;;20.20;56.20;;;;;;4978622;28;20054;-54
2022/07/11 00:19:52;;;;;;;5.22;2.30;;;20.10;56.10;;;;;;4981995;28;20054;-50
2022/07/11 00:22:21;;;;;;;3.13;2.40;;;20.10;56.10;;;;;;4982497;28;20058;-48
2022/07/11 00:24:49;;;;;;;8.13;2.20;;;20.10;56.10;;;;;;4981114;28;20069;-51
2022/07/11 00:27:16;;;;;;;5.32;1.92;;;20.10;56.30;;;;;;4982341;28;20513;-55
2022/07/11 00:29:44;;;;;;;7.43;2.10;;;20.10;56.30;;;;;;4983564;28;20066;-52
2022/07/11 00:32:11;;;;;;;6.22;2.17;;;20.10;56.40;;;;;;4983151;28;20426;-53
2022/07/11 00:34:39;;;;;;;3.33;1.70;;;20.10;56.40;;;;;;4982724;28;20065;-50
2022/07/11 00:37:06;;;;;;;5.68;1.60;;;20.10;56.40;;;;;;4981333;28;20061;-50
2022/07/11 00:39:36;;;;;;;7.35;1.98;;;20.10;56.40;;;;;;4981566;28;20417;-54
2022/07/11 00:42:03;;;;;;;2.00;1.58;;;20.10;56.40;;;;;;4982043;28;20070;-54
2022/07/11 00:44:31;;;;;;;4.78;1.70;;;20.10;56.40;;;;;;4979410;28;20573;-52
2022/07/11 00:46:58;;;;;;;5.57;2.00;;;20.10;56.50;;;;;;4980300;28;20058;-55
2022/07/11 00:49:26;;;;;;;3.33;1.88;;;20.10;56.40;;;;;;4980951;28;20059;-51
2022/07/11 00:51:53;;;;;;;4.75;1.77;;;20.10;56.40;;;;;;4985504;28;20057;-50
2022/07/11 00:54:23;;;;;;;4.15;2.28;;;20.10;56.50;;;;;;4984272;28;20057;-55
2022/07/11 00:56:52;;;;;;;4.40;1.75;;;20.10;56.40;;;;;;4984352;28;20069;-50
2022/07/11 00:59:19;;;;;;;11.48;2.30;;;20.10;56.50;;;;;;4982817;28;20054;-49
2022/07/11 01:01:47;;;;;;;6.00;2.13;;;20.20;56.60;;;;;;4984819;28;20051;-52
2022/07/11 01:04:15;;;;;;;5.38;2.10;;;20.10;56.50;;;;;;4985427;28;20508;-55
2022/07/11 01:06:42;;;;;;;3.45;1.60;;;20.10;56.50;;;;;;4982614;28;20046;-57
2022/07/11 01:09:10;;;;;;;4.60;1.98;;;20.10;56.50;;;;;;4986214;28;20529;-53
2022/07/11 01:11:37;;;;;;;3.45;1.70;;;20.10;56.60;;;;;;4986644;28;20050;-51
2022/07/11 01:14:06;;;;;;;5.28;1.83;;;20.10;56.50;;;;;;4985926;28;20069;-53
2022/07/11 01:16:33;;;;;;;3.78;2.00;;;20.10;56.50;;;;;;4985039;28;20046;-58
2022/07/11 01:19:01;;;;;;;5.88;1.60;;;20.10;56.50;;;;;;4984454;28;20050;-56
2022/07/11 01:21:31;;;;;;;3.90;1.65;;;20.10;56.40;;;;;;4986302;28;20050;-50
2022/07/11 01:24:01;;;;;;;3.33;1.55;;;20.10;56.40;;;;;;4984795;28;20058;-55
2022/07/11 01:26:30;;;;;;;2.35;1.33;;;20.10;56.40;;;;;;4983042;28;20046;-50
2022/07/11 01:29:06;;;;;;;4.15;1.70;;;20.10;56.40;;;;;;4985211;28;20529;-55
2022/07/11 01:31:33;;;;;;;5.65;1.88;;;20.10;56.50;;;;;;4984158;28;20057;-52
2022/07/11 01:34:01;;;;;;;4.25;2.08;;;20.20;56.50;;;;;;4984205;28;20062;-52
2022/07/11 01:36:28;;;;;;;5.75;1.95;;;20.20;56.50;;;;;;4983662;28;20073;-50
2022/07/11 01:38:56;;;;;;;6.30;2.28;;;20.20;56.40;;;;;;4977749;28;20054;-58
2022/07/11 01:41:25;;;;;;;5.18;1.90;;;20.10;56.40;;;;;;4985328;28;20057;-54
2022/07/11 01:43:52;;;;;;;8.80;2.28;;;20.20;56.50;;;;;;4981642;28;20058;-54
2022/07/11 01:46:21;;;;;;;5.40;1.90;;;20.20;56.40;;;;;;4984233;28;20050;-53
2022/07/11 01:48:49;;;;;;;2.95;1.70;;;20.10;56.40;;;;;;4985482;28;20061;-51
2022/07/11 01:51:16;;;;;;;3.47;2.13;;;20.20;56.50;;;;;;4986511;28;20055;-52
2022/07/11 01:53:44;;;;;;;4.05;1.90;;;20.20;56.50;;;;;;4986305;28;20421;-57
2022/07/11 01:56:11;;;;;;;4.60;2.10;;;20.10;56.40;;;;;;4981323;28;20529;-53
2022/07/11 01:58:40;;;;;;;5.43;2.60;;;20.10;56.40;;;;;;4981569;28;20414;-54
2022/07/11 02:01:08;;;;;;;3.70;2.05;;;20.10;56.40;;;;;;4981884;28;20050;-54
2022/07/11 02:03:37;;;;;;;4.30;2.33;;;20.10;56.40;;;;;;4980947;28;20061;-52
2022/07/11 02:06:05;;;;;;;5.03;2.80;;;20.00;56.40;;;;;;4981001;28;20925;-52
2022/07/11 02:08:33;;;;;;;7.20;2.50;;;20.00;56.40;;;;;;4973933;28;20058;-57
2022/07/11 02:11:00;;;;;;;4.45;2.35;;;20.00;56.60;;;;;;4981520;28;20062;-58
2022/07/11 02:13:28;;;;;;;6.50;2.67;;;20.00;56.70;;;;;;4982006;28;20050;-53
2022/07/11 02:16:02;;;;;;;11.00;2.60;;;20.00;56.70;;;;;;4978484;28;20061;-53
2022/07/11 02:18:29;;;;;;;;;;;20.00;56.90;;;;;;4985500;28;20054;-52
2022/07/11 02:20:57;;;;;;;6.15;2.33;;;19.90;56.80;;;;;;4985783;28;20761;-52
2022/07/11 02:23:24;;;;;;;5.90;2.45;;;19.90;56.80;;;;;;4986296;28;20058;-56
2022/07/11 02:25:53;;;;;;;5.57;1.88;;;19.90;56.90;;;;;;4983748;28;20062;-53
2022/07/11 02:28:20;;;;;;;10.35;2.30;;;19.90;57.00;;;;;;4983461;28;20054;-53
2022/07/11 02:30:48;;;;;;;5.38;2.08;;;19.90;57.00;;;;;;4983125;28;20054;-54
2022/07/11 02:33:17;;;;;;;5.18;2.15;;;19.90;57.10;;;;;;4981076;28;20058;-53
2022/07/11 02:35:46;;;;;;;5.28;2.53;;;19.80;57.20;;;;;;4984104;28;20054;-56
2022/07/11 02:38:14;;;;;;;4.65;1.95;;;19.90;57.30;;;;;;4981522;28;20402;-56
2022/07/11 02:40:42;;;;;;;3.53;2.22;;;19.80;57.70;;;;;;4983910;28;20058;-51
2022/07/11 02:43:09;;;;;;;2.20;1.80;;;19.80;57.20;;;;;;4981787;28;20526;-50
2022/07/11 02:45:37;;;;;;;6.65;2.22;;;19.80;57.30;;;;;;4982674;28;20055;-51
2022/07/11 02:48:05;;;;;;;4.03;2.17;;;19.80;57.30;;;;;;4980722;28;20061;-52
2022/07/11 02:50:34;;;;;;;6.45;2.42;;;19.80;57.40;;;;;;4985110;28;20046;-54
2022/07/11 02:53:02;;;;;;;10.45;3.22;;;19.80;57.50;;;;;;4984527;28;20418;-52
2022/07/11 02:55:30;;;;;;;10.25;2.92;;;19.80;57.50;;;;;;4983824;28;20066;-50
2022/07/11 02:57:59;;;;;;;6.38;2.53;;;19.80;57.50;;;;;;4983612;28;20054;-51
2022/07/11 03:00:27;;;;;;;6.85;2.92;;;19.80;57.60;;;;;;4982250;28;20069;-49
2022/07/11 03:02:55;;;;;;;6.97;2.95;;;19.70;57.60;;;;;;4983191;28;20085;-47
2022/07/11 03:05:22;;;;;;;7.95;2.97;;;19.70;57.60;;;;;;4982946;28;20050;-51
2022/07/11 03:07:51;;;;;;;8.43;2.90;;;19.70;57.70;;;;;;4983040;28;20405;-50
2022/07/11 03:10:19;;;;;;;8.15;3.08;;;19.70;57.80;;;;;;4984045;28;20054;-49
2022/07/11 03:12:46;;;;;;;5.60;2.45;;;19.70;57.80;;;;;;4981480;28;20058;-53
2022/07/11 03:15:14;;;;;;;4.13;2.78;;;19.70;57.90;;;;;;4971486;28;20068;-52
2022/07/11 03:17:41;;;;;;;10.63;3.50;;;19.70;58.00;;;;;;4978268;28;20077;-51
2022/07/11 03:20:10;;;;;;;8.07;3.33;;;19.70;58.00;;;;;;4981926;28;20058;-50
2022/07/11 03:22:38;;;;;;;5.13;2.75;;;19.70;58.00;;;;;;4983807;28;20049;-54
2022/07/11 03:25:08;;;;;;;9.73;4.05;;;19.70;58.00;;;;;;4981532;28;20514;-50
2022/07/11 03:27:35;;;;;;;7.70;3.33;;;19.70;58.10;;;;;;4976713;28;20061;-51
2022/07/11 03:30:04;;;;;;;8.90;3.08;;;19.70;58.10;;;;;;4980433;28;20046;-57
2022/07/11 03:32:31;;;;;;;6.28;3.38;;;19.70;58.10;;;;;;4977267;28;20490;-54
2022/07/11 03:37:43;;;;;;;7.75;3.55;;;19.60;58.10;;;;;;4982549;28;20073;-51
2022/07/11 03:40:13;;;;;;;11.07;3.13;;;19.60;58.20;;;;;;4982852;28;20520;-54
2022/07/11 03:42:40;;;;;;;5.25;2.72;;;19.60;58.40;;;;;;4981886;28;20058;-49
2022/07/11 03:45:08;;;;;;;10.05;3.30;;;19.50;58.30;;;;;;4979362;28;20494;-52
2022/07/11 03:47:36;;;;;;;6.95;3.08;;;19.50;58.50;;;;;;4976719;28;20046;-54
2022/07/11 03:50:04;;;;;;;8.13;3.45;;;19.50;58.50;;;;;;4977464;28;20061;-51
2022/07/11 03:52:32;;;;;;;9.05;3.55;;;19.50;58.70;;;;;;4983799;28;20490;-53
2022/07/11 03:55:00;;;;;;;11.65;3.75;;;19.50;58.70;;;;;;4980211;28;20050;-57
2022/07/11 03:57:29;;;;;;;7.40;3.10;;;19.50;58.70;;;;;;4979737;28;20603;-56
2022/07/11 03:59:56;;;;;;;7.30;3.72;;;19.50;58.80;;;;;;4978964;28;20054;-51
2022/07/11 04:02:24;;;;;;;7.57;2.95;;;19.50;58.90;;;;;;4979778;28;20121;-51
2022/07/11 04:04:51;;;;;;;6.75;3.75;;;19.50;59.00;;;;;;4978714;28;20065;-50
2022/07/11 04:07:20;;;;;;;8.18;3.80;;;19.50;59.10;;;;;;4980204;28;20061;-54
2022/07/11 04:09:47;;;;;;;7.60;3.90;;;19.50;59.00;;;;;;4978016;28;20148;-52
2022/07/11 04:12:15;;;;;;;7.35;3.40;;;19.50;59.10;;;;;;4983346;28;20061;-51
2022/07/11 04:14:44;;;;;;;6.38;3.03;;;19.50;59.10;;;;;;4979344;28;20046;-55
2022/07/11 04:17:11;;;;;;;7.35;3.58;;;19.40;59.20;;;;;;4978340;28;20054;-51
2022/07/11 04:19:39;;;;;;;7.32;3.08;;;19.40;59.20;;;;;;4973558;28;20126;-54
2022/07/11 04:22:07;;;;;;;15.10;4.13;;;19.40;59.40;;;;;;4980918;28;20469;-52
2022/07/11 04:24:34;;;;;;;8.48;3.60;;;19.40;59.40;;;;;;4980392;28;20061;-52
2022/07/11 04:27:02;;;;;;;9.50;3.80;;;19.40;59.50;;;;;;4978622;28;20069;-57
2022/07/11 04:29:29;;;;;;;7.13;3.63;;;19.40;59.50;;;;;;4979154;28;20046;-52
2022/07/11 04:31:58;;;;;;;8.57;4.10;;;19.40;59.70;;;;;;4981688;28;20058;-51
2022/07/11 04:34:25;;;;;;;9.45;4.55;;;19.30;60.60;;;;;;4979908;28;20134;-50
2022/07/11 04:36:53;;;;;;;10.00;4.10;;;19.30;60.10;;;;;;4982111;28;20051;-52
2022/07/11 04:39:20;;;;;;;6.70;3.33;;;19.30;60.20;;;;;;4982753;28;20050;-53
2022/07/11 04:41:48;;;;;;;10.07;3.88;;;19.30;60.50;;;;;;4982184;28;20081;-53
2022/07/11 04:44:15;;;;;;;9.73;3.50;;;19.30;60.70;;;;;;4978346;28;20058;-51
2022/07/11 04:46:43;;;;;;;7.28;3.67;;;19.30;60.90;;;;;;4981569;28;20513;-49
2022/07/11 04:49:11;;;;;;;8.75;3.70;;;19.20;60.80;;;;;;4981541;28;20058;-51
2022/07/11 04:51:39;;;;;;;9.63;4.13;;;19.20;60.90;;;;;;4980702;28;20062;-52
2022/07/11 04:54:07;;;;;;;8.27;4.03;;;19.20;61.00;;;;;;4983040;28;20065;-54
2022/07/11 04:56:34;;;;;;;8.27;4.32;;;19.20;61.10;;;;;;4979492;28;20054;-48
2022/07/11 04:59:02;;;;;;;7.95;4.00;;;19.20;61.20;;;;;;4981671;28;20418;-49
2022/07/11 05:01:29;;;;;;;8.18;3.80;;;19.20;61.40;;;;;;4981032;28;20380;-48
2022/07/11 05:03:57;;;;;;;11.13;4.13;;;19.20;61.60;;;;;;4981712;28;20491;-53
2022/07/11 05:06:26;;;;;;;10.45;4.38;;;19.20;61.70;;;;;;4980947;28;20062;-49
2022/07/11 05:08:54;;;;;;;8.23;3.85;;;19.20;61.80;;;;;;4981808;28;20434;-48
2022/07/11 05:11:23;;;;;;;12.50;4.90;;;19.10;61.90;;;;;;4981378;28;20054;-57
2022/07/11 05:13:50;;;;;;;8.27;4.78;;;19.10;61.90;;;;;;4981626;28;20050;-50
2022/07/11 05:16:18;;;;;;;7.93;4.72;;;19.10;62.10;;;;;;4978778;28;20061;-46
2022/07/11 05:18:45;;;;;;;8.48;4.22;;;19.10;62.30;;;;;;4981608;28;20061;-50
2022/07/11 05:21:13;;;;;;;13.48;5.05;;;19.10;62.40;;;;;;4981952;28;20433;-51
2022/07/11 05:23:41;;;;;;;7.90;4.30;;;19.10;62.60;;;;;;4982349;28;20051;-50
2022/07/11 05:26:10;;;;;;;8.05;4.80;;;19.10;62.60;;;;;;4979291;28;20062;-48
2022/07/11 05:28:37;;;;;;;12.05;5.90;;;19.10;62.80;;;;;;4977532;28;20054;-52
2022/07/11 05:31:05;;;;;;;13.80;6.32;;;19.10;62.90;;;;;;4979491;28;20069;-47
2022/07/11 05:33:32;;;;;;;14.38;6.90;;;19.10;62.80;;;;;;4980591;28;20053;-52
2022/07/11 05:36:00;;;;;;;14.35;7.20;;;19.10;62.70;;;;;;4978980;28;20053;-50
2022/07/11 05:38:27;;;;;;;15.75;7.38;;;19.10;62.80;;;;;;4981639;28;20050;-50
2022/07/11 05:40:59;;;;;;;14.77;7.35;;;19.10;62.90;;;;;;4982745;28;20058;-51
2022/07/11 05:43:28;;;;;;;10.45;6.28;;;19.10;63.00;;;;;;4982742;28;20046;-53
2022/07/11 05:45:56;;;;;;;13.43;7.20;;;19.10;63.20;;;;;;4982533;28;20049;-48
2022/07/11 05:48:24;;;;;;;15.82;7.78;;;19.10;63.10;;;;;;4982702;28;20054;-48
2022/07/11 05:50:52;;;;;;;9.45;5.88;;;19.10;63.30;;;;;;4984116;28;20394;-48
2022/07/11 05:53:19;;;;;;;15.18;6.55;;;19.10;63.50;;;;;;4985299;28;20050;-52
2022/07/11 05:55:47;;;;;;;12.13;6.10;;;19.10;63.60;;;;;;4982700;28;20061;-48
2022/07/11 05:58:15;;;;;;;10.63;6.03;;;19.10;63.70;;;;;;4984718;28;20968;-50
2022/07/11 06:00:43;;;;;;;20.73;6.93;;;19.10;64.10;;;;;;4980455;28;20053;-49
2022/07/11 06:03:10;;;;;;;11.40;6.28;;;19.10;63.90;;;;;;4981936;28;20046;-48
2022/07/11 06:05:38;;;;;;;11.57;6.57;;;19.10;63.60;;;;;;4985281;28;20046;-48
2022/07/11 06:10:51;;;;;;;10.68;5.05;;;19.10;64.10;;;;;;4990107;28;20084;-50
2022/07/11 06:13:20;;;;;;;16.48;5.90;;;19.10;64.20;;;;;;4984393;28;20058;-51
2022/07/11 06:15:48;;;;;;;11.35;5.70;;;19.10;64.40;;;;;;4981513;28;20058;-48
2022/07/11 06:18:15;;;;;;;13.82;6.70;;;19.10;64.50;;;;;;4983510;28;20050;-48
2022/07/11 06:20:42;;;;;;;17.45;6.75;;;19.20;64.20;;;;;;4985030;28;20054;-48
2022/07/11 06:23:10;;;;;;;9.68;5.88;;;19.20;64.40;;;;;;4985963;28;20065;-49
2022/07/11 06:25:37;;;;;;;16.05;8.10;;;19.20;64.80;;;;;;4982964;28;20062;-47
2022/07/11 06:28:05;;;;;;;13.25;7.20;;;19.30;64.20;;;;;;4985068;28;20058;-47
2022/07/11 06:30:36;;;;;;;15.23;7.13;;;19.30;63.60;;;;;;4982934;28;20418;-52
2022/07/11 06:33:04;;;;;;;13.90;7.55;;;19.30;63.80;;;;;;4985026;28;20051;-50
2022/07/11 06:35:31;;;;;;;14.77;8.07;;;19.30;63.80;;;;;;4983466;28;20055;-49
2022/07/11 06:37:59;;;;;;;14.48;7.05;;;19.40;63.40;;;;;;4983485;28;20054;-54
2022/07/11 06:40:27;;;;;;;14.98;6.50;;;19.40;63.30;;;;;;4983941;28;20055;-52
2022/07/11 06:42:54;;;;;;;11.77;6.00;;;19.40;63.50;;;;;;4983192;28;20058;-51
2022/07/11 06:45:22;;;;;;;14.57;5.60;;;19.50;63.30;;;;;;4979903;28;20376;-52
2022/07/11 06:47:51;;;;;;;16.02;6.38;;;19.50;63.00;;;;;;4978868;28;20054;-47
2022/07/11 06:50:19;;;;;;;10.40;5.93;;;19.50;63.30;;;;;;4979844;28;20054;-47
2022/07/11 06:52:47;;;;;;;9.48;5.47;;;19.50;63.00;;;;;;4983731;28;20054;-55
2022/07/11 06:55:15;;;;;;;13.75;4.75;;;19.50;62.30;;;;;;4981739;28;20081;-49
2022/07/11 06:57:43;;;;;;;13.38;5.00;;;19.50;62.40;;;;;;4980276;28;20054;-50
2022/07/11 07:00:11;;;;;;;6.85;3.85;;;19.50;62.40;;;;;;4978078;28;20057;-49
2022/07/11 07:02:39;;;;;;;8.55;3.70;;;19.50;62.70;;;;;;4982704;28;20277;-47
2022/07/11 07:05:09;;;;;;;12.02;3.53;;;19.50;62.50;;;;;;4983764;28;20166;-49
2022/07/11 07:07:37;;;;;;;8.85;2.95;;;19.50;62.20;;;;;;4983050;28;20065;-48
2022/07/11 07:10:05;;;;;;;15.85;3.38;;;19.60;62.30;;;;;;4982923;28;20061;-53
2022/07/11 07:12:32;;;;;;;10.18;3.33;;;19.60;62.40;;;;;;4982051;28;20042;-49
2022/07/11 07:15:01;;;;;;;8.00;2.88;;;19.60;62.50;;;;;;4983428;28;20066;-50
2022/07/11 07:17:28;;;;;;;6.68;2.72;;;19.60;62.10;;;;;;4982676;28;20050;-47
2022/07/11 07:19:56;;;;;;;8.68;2.58;;;19.60;61.90;;;;;;4982381;28;20054;-52
2022/07/11 07:22:25;;;;;;;4.75;2.55;;;19.60;62.00;;;;;;4979885;28;20054;-48
2022/07/11 07:24:52;;;;;;;7.82;2.95;;;19.60;61.50;;;;;;4982839;28;20419;-48
2022/07/11 07:27:20;;;;;;;6.95;2.53;;;19.60;61.50;;;;;;4977295;28;20058;-51
2022/07/11 07:29:48;;;;;;;6.05;2.33;;;19.50;61.30;;;;;;4981277;28;20054;-54
2022/07/11 07:32:15;;;;;;;6.25;2.85;;;19.60;61.60;;;;;;4982438;28;20058;-50
2022/07/11 07:34:43;;;;;;;9.80;2.50;;;19.60;61.60;;;;;;4984706;28;20061;-53
2022/07/11 07:37:10;;;;;;;8.48;2.53;;;19.60;62.30;;;;;;4976120;28;20081;-49
2022/07/11 07:39:39;;;;;;;5.93;2.45;;;19.70;61.70;;;;;;4978362;28;20525;-49
2022/07/11 07:42:07;;;;;;;5.45;2.60;;;19.70;61.30;;;;;;4976988;28;20050;-47
2022/07/11 07:44:34;;;;;;;6.35;3.05;;;19.70;61.60;;;;;;4982972;28;20046;-53
2022/07/11 07:47:02;;;;;;;6.40;2.72;;;19.80;61.80;;;;;;4981245;28;20692;-51
2022/07/11 07:49:30;;;;;;;7.78;3.08;;;19.80;61.60;;;;;;4981398;28;20465;-48
2022/07/11 07:51:57;;;;;;;4.47;2.78;;;19.80;61.40;;;;;;4980776;28;20054;-50
2022/07/11 07:54:25;;;;;;;9.02;3.17;;;19.80;61.50;;;;;;4976155;28;20494;-53
2022/07/11 07:56:53;;;;;;;6.70;3.10;;;19.90;61.30;;;;;;4977421;28;20058;-53
2022/07/11 07:59:24;;;;;;;4.10;2.90;;;19.90;61.00;;;;;;4980732;28;20065;-52
2022/07/11 08:01:51;;;;;;;7.40;3.33;;;20.00;60.50;;;;;;4979509;28;20058;-48
2022/07/11 08:04:19;;;;;;;5.82;3.20;;;20.00;60.30;;;;;;4975229;28;20054;-52
2022/07/11 08:06:46;;;;;;;4.97;3.30;;;20.00;60.90;;;;;;4978024;28;20510;-47
2022/07/11 08:09:14;;;;;;;8.45;3.60;;;20.10;60.10;;;;;;4979444;28;20057;-54
2022/07/11 08:11:42;;;;;;;5.75;3.45;;;20.10;59.70;;;;;;4983190;28;20065;-52
2022/07/11 08:14:10;;;;;;;5.68;3.40;;;20.10;59.60;;;;;;4979328;28;20057;-51
2022/07/11 08:16:38;;;;;;;10.40;3.70;;;20.10;59.60;;;;;;4976962;28;20406;-49
2022/07/11 08:19:06;;;;;;;7.63;3.95;;;20.10;59.50;;;;;;4979372;28;20054;-50
2022/07/11 08:21:34;;;;;;;5.75;3.50;;;20.10;59.50;;;;;;4980117;28;20069;-47
2022/07/11 08:24:03;;;;;;;9.48;4.57;;;20.10;59.80;;;;;;4978591;28;20046;-48
2022/07/11 08:26:31;;;;;;;7.38;3.92;;;20.10;59.80;;;;;;4976222;28;20418;-49
2022/07/11 08:28:58;;;;;;;7.53;4.03;;;20.10;59.90;;;;;;4981950;28;20051;-49
2022/07/11 08:31:27;;;;;;;8.70;4.80;;;20.10;60.20;;;;;;4979908;28;20396;-49
2022/07/11 08:33:57;;;;;;;7.10;4.35;;;20.10;59.50;;;;;;4975337;28;20054;-50
2022/07/11 08:36:24;;;;;;;7.63;4.95;;;20.10;59.50;;;;;;4976794;28;20081;-49
2022/07/11 08:38:52;;;;;;;7.80;4.70;;;20.00;59.70;;;;;;4982119;28;20058;-51
2022/07/11 08:41:19;;;;;;;8.27;5.13;;;20.00;60.10;;;;;;4975358;28;20057;-52
2022/07/11 08:43:47;;;;;;;8.95;5.65;;;20.10;60.80;;;;;;4970378;28;20047;-54
2022/07/11 08:46:15;;;;;;;10.73;6.15;;;20.10;61.20;;;;;;4973512;28;20058;-53
2022/07/11 08:48:46;;;;;;;9.80;6.13;;;20.10;60.70;;;;;;4972982;28;20046;-53
2022/07/11 08:51:13;;;;;;;16.05;9.25;;;20.20;60.70;;;;;;4973313;28;20499;-57
2022/07/11 08:53:44;;;;;;;18.05;9.73;;;20.30;60.70;;;;;;4978295;28;20050;-49
2022/07/11 08:56:15;;;;;;;20.45;11.50;;;20.20;60.60;;;;;;4978447;28;20054;-51
2022/07/11 08:58:45;;;;;;;22.63;12.27;;;20.30;60.90;;;;;;4982661;28;20057;-53
2022/07/11 09:01:16;;;;;;;21.60;12.93;;;20.30;61.20;;;;;;4980640;28;20065;-50
2022/07/11 09:03:45;;;;;;;22.55;13.48;;;20.30;61.00;;;;;;4975238;28;20058;-54
2022/07/11 09:06:13;;;;;;;24.42;12.05;;;20.30;60.80;;;;;;4976768;28;20046;-53
2022/07/11 09:08:41;;;;;;;22.00;13.75;;;20.40;60.60;;;;;;4976692;28;20460;-51
2022/07/11 09:11:08;;;;;;;25.73;14.35;;;20.40;60.90;;;;;;4983017;28;20053;-48
2022/07/11 09:13:36;;;;;;;21.70;13.57;;;20.50;60.80;;;;;;4985519;28;20521;-49
2022/07/11 09:16:06;;;;;;;18.10;11.88;;;20.50;60.40;;;;;;4984094;28;20061;-51
2022/07/11 09:18:36;;;;;;;23.40;15.35;;;20.50;60.30;;;;;;4985596;28;20065;-48
2022/07/11 09:26:39;;;;;;;17.23;9.90;;;20.50;59.80;;;;;;4981871;28;20057;-49
2022/07/11 09:29:09;;;;;;;16.45;9.93;;;20.50;59.80;;;;;;4985594;28;20062;-53
2022/07/11 09:31:41;;;;;;;12.43;8.13;;;20.40;59.80;;;;;;4984778;28;20055;-53
2022/07/11 09:34:09;;;;;;;20.15;7.45;;;20.50;60.00;;;;;;4984534;28;20054;-51
2022/07/11 09:36:44;;;;;;;11.93;6.30;;;20.40;60.00;;;;;;4984633;28;20057;-53
2022/07/11 09:39:14;;;;;;;11.18;5.63;;;20.40;59.60;;;;;;4985058;28;20046;-51
2022/07/11 09:41:43;;;;;;;6.30;4.38;;;20.40;59.30;;;;;;4984388;28;20061;-56
2022/07/11 09:44:15;;;;;;;5.18;3.63;;;20.40;60.00;;;;;;4982401;28;20047;-58
2022/07/11 09:46:45;;;;;;;6.78;4.50;;;20.50;60.20;;;;;;4983408;28;20050;-51
2022/07/11 09:49:13;;;;;;;6.10;4.45;;;20.60;59.90;;;;;;4982667;28;20058;-51
2022/07/11 09:51:43;;;;;;;5.65;4.30;;;20.70;59.70;;;;;;4983529;28;20050;-55
2022/07/11 09:54:11;;;;;;;6.30;4.32;;;20.80;59.40;;;;;;4983674;28;20068;-55
2022/07/11 09:56:43;;;;;;;8.77;4.28;;;20.90;59.40;;;;;;4982141;28;20061;-52
2022/07/11 09:59:12;;;;;;;6.07;4.20;;;21.00;59.00;;;;;;4985110;28;20054;-48
2022/07/11 10:01:40;;;;;;;4.90;3.35;;;21.10;58.70;;;;;;4983193;28;20054;-52
2022/07/11 10:04:10;;;;;;;7.25;4.03;;;21.20;58.00;;;;;;4982896;28;20053;-47
2022/07/11 10:06:39;;;;;;;9.38;5.20;;;21.20;57.90;;;;;;4983272;28;20061;-48
2022/07/11 10:09:08;;;;;;;8.65;5.50;;;21.30;58.00;;;;;;4983809;28;20429;-49
2022/07/11 10:11:37;;;;;;;7.18;5.35;;;21.30;57.90;;;;;;4983671;28;20138;-55
2022/07/11 10:14:07;;;;;;;7.07;5.22;;;21.30;57.10;;;;;;4984069;28;20050;-48
2022/07/11 10:16:43;;;;;;;8.68;5.07;;;21.30;57.10;;;;;;4982507;28;20054;-52
2022/07/11 10:19:19;;;;;;;7.18;5.20;;;21.30;56.90;;;;;;4982376;28;20058;-51
2022/07/11 10:21:53;;;;;;;6.68;5.18;;;21.40;57.50;;;;;;4983777;28;20510;-49
2022/07/11 10:24:32;;;;;;;8.15;5.72;;;21.40;56.80;;;;;;4982194;28;20050;-53
2022/07/11 10:27:07;;;;;;;11.60;7.25;;;21.40;56.70;;;;;;4982225;28;20065;-49
2022/07/11 10:29:40;;;;;;;8.40;6.20;;;21.50;56.60;;;;;;4981089;28;20417;-52
2022/07/11 10:32:09;;;;;;;18.90;6.68;;;21.50;56.70;;;;;;4981042;28;20058;-57
2022/07/11 10:34:38;;;;;;;10.07;6.10;;;21.60;57.00;;;;;;4980992;28;20057;-49
2022/07/11 10:37:08;;;;;;;9.57;6.75;;;21.60;57.10;;;;;;4981461;28;20054;-49
2022/07/11 10:39:39;;;;;;;9.55;6.13;;;21.60;56.90;;;;;;4983085;28;20058;-47
2022/07/11 10:42:09;;;;;;;11.73;7.53;;;21.60;56.60;;;;;;4983969;28;20050;-47
2022/07/11 10:44:51;;;;;;;9.23;6.75;;;21.60;56.00;;;;;;4981008;28;20050;-49
2022/07/11 10:47:36;;;;;;;11.65;6.68;;;21.60;56.60;;;;;;4978416;28;20069;-50
2022/07/11 10:50:11;;;;;;;14.45;7.65;;;21.50;57.20;;;;;;4983060;28;20057;-49
2022/07/11 10:52:41;;;;;;;12.02;8.20;;;21.60;56.80;;;;;;4982705;28;20057;-53
2022/07/11 10:55:29;;;;;;;10.32;7.32;;;21.60;56.40;;;;;;4984103;28;20391;-51
2022/07/11 10:58:09;;;;;;;11.15;8.15;;;21.60;56.60;;;;;;4979371;28;20058;-49
2022/07/11 11:00:36;;;;;;;13.48;8.30;;;21.60;56.30;;;;;;4982384;28;20057;-49
2022/07/11 11:03:06;;;;;;;11.77;7.85;;;21.60;56.70;;;;;;4982504;28;20066;-50
2022/07/11 11:05:47;;;;;;;11.50;7.82;;;21.60;56.40;;;;;;4979751;28;20061;-53
2022/07/11 11:08:47;;;;;;;11.50;8.60;;;21.60;56.30;;;;;;4984582;28;20502;-51
2022/07/11 11:11:38;;;;;;;13.23;8.80;;;21.60;56.20;;;;;;4983583;28;20061;-54
2022/07/11 11:14:29;;;;;;;12.98;8.32;;;21.60;56.40;;;;;;4978402;28;20997;-58
2022/07/11 11:17:17;;;;;;;13.10;8.52;;;21.60;56.10;;;;;;4978900;28;20510;-50
2022/07/11 11:19:52;;;;;;;17.52;8.63;;;21.60;56.00;;;;;;4982618;28;20057;-50
2022/07/11 11:22:21;;;;;;;13.93;9.27;;;21.50;56.00;;;;;;4980274;28;20050;-51
2022/07/11 11:24:50;;;;;;;13.27;9.73;;;21.50;56.80;;;;;;4982185;28;20077;-50
2022/07/11 11:27:21;;;;;;;18.70;10.93;;;21.40;56.70;;;;;;4979385;28;20054;-47
2022/07/11 11:29:53;;;;;;;17.50;11.30;;;21.40;56.30;;;;;;4982107;28;20418;-50
2022/07/11 11:32:21;;;;;;;17.08;11.23;;;21.40;56.10;;;;;;4978346;28;20057;-52
2022/07/11 11:34:49;;;;;;;18.00;11.93;;;21.40;56.50;;;;;;4983130;28;20069;-53
2022/07/11 11:37:18;;;;;;;24.20;12.18;;;21.40;56.50;;;;;;4982228;28;20058;-50
2022/07/11 11:39:46;;;;;;;15.55;12.07;;;21.40;56.30;;;;;;4984043;28;20062;-52
2022/07/11 11:42:16;;;;;;;19.83;12.20;;;21.50;56.90;;;;;;4982226;28;20061;-51
2022/07/11 11:44:58;;;;;;;19.27;11.65;;;21.40;56.20;;;;;;4978666;28;20054;-53
2022/07/11 11:47:29;;;;;;;15.95;12.05;;;21.50;56.00;;;;;;4977654;28;20073;-47
2022/07/11 11:49:57;;;;;;;16.40;12.25;;;21.50;56.10;;;;;;4981133;28;20361;-50
2022/07/11 11:52:25;;;;;;;23.88;13.35;;;21.60;56.20;;;;;;4980666;28;20062;-50
2022/07/11 11:54:55;;;;;;;20.63;14.20;;;21.50;56.00;;;;;;4980295;28;20057;-51
2022/07/11 11:57:24;;;;;;;18.02;13.20;;;21.60;56.30;;;;;;4981553;28;20441;-51
2022/07/11 11:59:53;;;;;;;19.40;13.90;;;21.60;56.10;;;;;;4982657;28;20073;-51
2022/07/11 12:02:25;;;;;;;18.88;13.57;;;21.60;56.10;;;;;;4980884;28;20070;-51
2022/07/11 12:04:53;;;;;;;17.70;12.85;;;21.70;56.90;;;;;;4981946;28;20418;-49
2022/07/11 12:07:26;;;;;;;20.27;13.68;;;21.70;56.00;;;;;;4978693;28;20418;-52
2022/07/11 12:09:58;;;;;;;19.58;13.77;;;21.80;55.70;;;;;;4983395;28;20065;-52
2022/07/11 12:12:52;;;;;;;20.00;13.75;;;21.80;55.80;;;;;;4983643;28;20054;-49
2022/07/11 12:15:34;;;;;;;21.33;13.93;;;21.90;55.80;;;;;;4981435;28;20058;-50
2022/07/11 12:18:05;;;;;;;17.27;12.93;;;21.90;55.20;;;;;;4982332;28;20069;-50
2022/07/11 12:20:44;;;;;;;18.95;13.85;;;21.90;55.40;;;;;;4980267;28;20066;-56
2022/07/11 12:23:15;;;;;;;18.35;13.43;;;22.00;56.20;;;;;;4978044;28;20087;-53
2022/07/11 12:25:43;;;;;;;25.05;14.88;;;22.00;55.50;;;;;;4979705;28;20053;-49
2022/07/11 12:28:11;;;;;;;18.90;14.48;;;21.90;55.40;;;;;;4975005;28;20054;-48
2022/07/11 12:30:40;;;;;;;19.90;14.80;;;22.00;55.60;;;;;;4976360;28;20054;-48
2022/07/11 12:33:10;;;;;;;19.52;14.43;;;21.90;55.20;;;;;;4981326;28;20442;-48
2022/07/11 12:35:52;;;;;;;17.17;14.07;;;22.00;55.30;;;;;;4979150;28;20042;-51
2022/07/11 12:38:21;;;;;;;17.75;14.00;;;22.00;55.80;;;;;;4980030;28;20058;-48
2022/07/11 12:41:03;;;;;;;19.55;14.35;;;22.00;55.80;;;;;;4977298;28;20450;-54
2022/07/11 12:46:29;;;;;;;18.65;13.32;;;22.00;55.00;;;;;;4984297;28;20083;-49
2022/07/11 12:48:59;;;;;;;18.52;14.43;;;22.00;55.10;;;;;;4977686;28;20057;-50
2022/07/11 12:51:32;;;;;;;17.23;12.65;;;22.10;54.90;;;;;;4979371;28;20054;-52
2022/07/11 12:54:01;;;;;;;17.77;14.20;;;22.10;54.90;;;;;;4982447;28;20054;-51
2022/07/11 12:56:29;;;;;;;17.13;13.77;;;22.10;54.90;;;;;;4981799;28;21036;-51
2022/07/11 12:58:56;;;;;;;16.52;12.55;;;22.10;55.40;;;;;;4981435;28;20506;-50
2022/07/11 13:01:24;;;;;;;18.30;12.65;;;22.20;55.20;;;;;;4982741;28;20494;-49
2022/07/11 13:03:53;;;;;;;16.38;12.25;;;22.20;55.10;;;;;;4982419;28;20054;-49